Time;durP1;ratioP1;P1;durP2;ratioP2;P2;SDS_P1;SDS_P2;PMS_P1;PMS_P2;Temp;Humidity;BMP_temperature;BMP_pressure;BME280_temperature;BME280_humidity;BME280_pressure;Samples;Min_cycle;Max_cycle;Signal;HPM_P1;HPM_P2
2022/04/11 00:02:20;;;;;;;4.32;1.92;;;3.30;99.90;;;;;;5016211;28;20145;-85
2022/04/11 00:04:46;;;;;;;5.97;2.22;;;3.90;99.90;;;;;;5032981;28;20107;-92
2022/04/11 00:07:11;;;;;;;3.78;2.05;;;3.30;99.90;;;;;;5032548;28;20045;-92
2022/04/11 00:09:37;;;;;;;5.53;2.50;;;3.40;99.90;;;;;;5032088;28;20050;-90
2022/04/11 00:12:03;;;;;;;6.18;2.15;;;3.20;99.90;;;;;;5015642;28;20475;-91
2022/04/11 00:14:29;;;;;;;7.00;2.50;;;3.20;99.90;;;;;;5015521;28;20060;-89
2022/04/11 00:16:54;;;;;;;6.65;2.25;;;3.10;99.90;;;;;;5016693;28;20156;-91
2022/04/11 00:19:21;;;;;;;4.80;2.20;;;3.10;99.90;;;;;;5032403;28;20483;-85
2022/04/11 00:21:47;;;;;;;3.85;1.85;;;3.30;99.90;;;;;;5031550;28;20046;-90
2022/04/11 00:24:12;;;;;;;6.18;2.55;;;3.00;99.90;;;;;;5015917;28;20044;-90
2022/04/11 00:26:38;;;;;;;3.47;2.00;;;2.90;99.90;;;;;;5015465;28;20042;-91
2022/04/11 00:29:04;;;;;;;6.75;2.20;;;2.90;99.90;;;;;;5014650;28;20049;-89
2022/04/11 00:31:29;;;;;;;6.45;2.65;;;2.80;99.90;;;;;;5031329;28;20175;-92
2022/04/11 00:33:55;;;;;;;5.30;3.15;;;2.80;99.90;;;;;;5032673;28;20476;-92
2022/04/11 00:36:21;;;;;;;4.35;2.30;;;2.70;99.90;;;;;;5031689;28;20050;-85
2022/04/11 00:38:47;;;;;;;5.97;2.30;;;2.70;99.90;;;;;;5032020;28;20061;-90
2022/04/11 00:41:13;;;;;;;3.25;2.17;;;3.60;99.90;;;;;;5032446;28;20057;-92
2022/04/11 00:43:40;;;;;;;6.97;2.47;;;2.80;99.90;;;;;;5013882;28;20061;-91
2022/04/11 00:46:07;;;;;;;6.70;2.10;;;3.60;99.90;;;;;;5016021;28;20038;-92
2022/04/11 00:48:34;;;;;;;5.72;2.63;;;2.70;99.90;;;;;;5011602;28;20049;-91
2022/04/11 00:51:07;;;;;;;;;;;2.60;99.90;;;;;;5013817;28;20046;-89
2022/04/11 00:53:34;;;;;;;3.85;2.30;;;2.60;99.90;;;;;;5012424;28;19933;-91
2022/04/11 00:56:01;;;;;;;4.38;2.05;;;2.90;99.90;;;;;;5011789;28;20042;-91
2022/04/11 00:58:33;;;;;;;5.60;2.30;;;2.90;99.90;;;;;;5013776;28;20133;-90
2022/04/11 01:00:59;;;;;;;3.55;2.17;;;3.40;99.90;;;;;;5032222;28;20061;-90
2022/04/11 01:03:25;;;;;;;5.20;2.58;;;2.50;99.90;;;;;;5015294;28;20049;-84
2022/04/11 01:05:50;;;;;;;4.60;2.40;;;3.10;99.90;;;;;;5031599;28;20054;-91
2022/04/11 01:08:16;;;;;;;6.80;2.50;;;2.50;99.90;;;;;;5031666;28;20046;-91
2022/04/11 01:10:43;;;;;;;7.22;2.60;;;2.50;99.90;;;;;;5030878;28;20249;-93
2022/04/11 01:13:08;;;;;;;;;;;2.50;99.90;;;;;;5014257;28;20520;-91
2022/04/11 01:15:34;;;;;;;4.07;2.13;;;2.50;99.90;;;;;;5014714;28;19921;-92
2022/04/11 01:18:00;;;;;;;4.68;2.38;;;2.50;99.90;;;;;;4998170;28;20057;-91
2022/04/11 01:20:26;;;;;;;5.18;2.28;;;2.50;99.90;;;;;;5031028;28;20041;-87
2022/04/11 01:22:51;;;;;;;7.85;2.40;;;3.30;99.90;;;;;;5031413;28;20049;-91
2022/04/11 01:25:20;;;;;;;6.22;2.30;;;2.50;99.90;;;;;;5014986;28;20057;-89
2022/04/11 01:27:46;;;;;;;4.50;2.22;;;2.50;99.90;;;;;;5030159;28;20312;-88
2022/04/11 01:30:14;;;;;;;7.53;2.58;;;2.50;99.90;;;;;;5031236;28;20482;-90
2022/04/11 01:32:40;;;;;;;4.68;2.30;;;2.50;99.90;;;;;;5030296;28;20083;-92
2022/04/11 01:35:26;;;;;;;4.93;2.35;;;2.50;99.90;;;;;;5014862;28;20103;-90
2022/04/11 01:37:53;;;;;;;5.43;2.53;;;2.50;99.90;;;;;;5030528;28;20034;-91
2022/04/11 01:40:19;;;;;;;4.75;2.47;;;2.50;99.90;;;;;;5015133;28;20111;-92
2022/04/11 01:42:45;;;;;;;;;;;2.50;99.90;;;;;;5030377;28;20058;-92
2022/04/11 01:45:12;;;;;;;6.18;2.67;;;2.50;99.90;;;;;;5030739;28;19956;-91
2022/04/11 01:47:39;;;;;;;7.43;2.45;;;3.30;99.90;;;;;;5014275;28;20063;-92
2022/04/11 01:50:09;;;;;;;6.63;2.30;;;3.40;99.90;;;;;;5014776;28;20066;-92
2022/04/11 01:52:35;;;;;;;5.47;2.30;;;2.50;99.90;;;;;;5030907;28;20057;-92
2022/04/11 01:55:02;;;;;;;7.10;2.60;;;2.50;99.90;;;;;;5031502;28;20051;-91
2022/04/11 01:57:28;;;;;;;7.53;2.40;;;2.40;99.90;;;;;;5030511;28;20049;-84
2022/04/11 01:59:54;;;;;;;;;;;2.40;99.90;;;;;;5030993;28;20056;-89
2022/04/11 02:02:20;;;;;;;4.85;2.30;;;2.90;99.90;;;;;;5015148;28;19990;-90
2022/04/11 02:04:46;;;;;;;6.47;2.22;;;2.40;99.90;;;;;;5014786;28;20060;-92
2022/04/11 02:07:11;;;;;;;6.90;2.63;;;2.50;99.90;;;;;;5014262;28;20061;-92
2022/04/11 02:09:37;;;;;;;8.13;2.80;;;2.40;99.90;;;;;;5030847;28;20054;-90
2022/04/11 02:12:03;;;;;;;5.10;2.40;;;2.40;99.90;;;;;;5030529;28;20136;-91
2022/04/11 02:14:29;;;;;;;7.00;2.67;;;2.40;99.90;;;;;;5030488;28;20498;-86
2022/04/11 02:16:55;;;;;;;;;;;2.30;99.90;;;;;;5015325;28;20053;-92
2022/04/11 02:19:21;;;;;;;5.03;2.78;;;2.40;99.90;;;;;;5030454;28;19951;-92
2022/04/11 02:21:46;;;;;;;6.13;2.50;;;2.50;99.90;;;;;;5046765;28;20057;-91
2022/04/11 02:24:12;;;;;;;6.57;2.42;;;3.00;99.90;;;;;;5030995;28;20053;-90
2022/04/11 02:26:37;;;;;;;4.70;2.47;;;2.30;99.90;;;;;;5014615;28;20126;-91
2022/04/11 02:29:03;;;;;;;7.40;2.63;;;2.30;99.90;;;;;;5028967;28;20044;-91
2022/04/11 02:31:29;;;;;;;5.57;2.17;;;2.30;99.90;;;;;;5014347;28;20053;-86
2022/04/11 02:33:54;;;;;;;5.88;2.47;;;2.20;99.90;;;;;;5011098;28;20058;-89
2022/04/11 02:36:20;;;;;;;7.25;2.40;;;2.20;99.90;;;;;;5010730;28;20506;-92
2022/04/11 02:38:46;;;;;;;7.20;2.70;;;2.60;99.90;;;;;;5010499;28;20136;-92
2022/04/11 02:41:11;;;;;;;4.68;2.63;;;2.20;99.90;;;;;;5011333;28;20050;-92
2022/04/11 02:43:37;;;;;;;12.35;2.75;;;2.20;99.90;;;;;;4999130;28;20060;-90
2022/04/11 02:46:03;;;;;;;5.93;2.50;;;2.20;99.90;;;;;;5031155;28;20546;-91
2022/04/11 02:48:28;;;;;;;4.88;2.60;;;2.20;99.90;;;;;;4998217;28;20553;-92
2022/04/11 02:50:54;;;;;;;6.88;2.67;;;3.10;99.90;;;;;;5013536;28;20395;-89
2022/04/11 02:53:20;;;;;;;9.23;2.60;;;2.70;99.90;;;;;;5030704;28;20038;-91
2022/04/11 02:55:45;;;;;;;7.80;2.83;;;2.30;99.90;;;;;;5013566;28;20049;-91
2022/04/11 02:58:11;;;;;;;6.45;2.20;;;2.30;99.90;;;;;;5029547;28;20077;-91
2022/04/11 03:00:36;;;;;;;8.63;3.40;;;2.20;99.90;;;;;;5030349;28;20551;-92
2022/04/11 03:03:03;;;;;;;6.70;2.72;;;2.90;99.90;;;;;;5014407;28;20053;-91
2022/04/11 03:05:29;;;;;;;4.03;2.58;;;2.10;99.90;;;;;;5013916;28;20053;-92
2022/04/11 03:07:55;;;;;;;8.50;2.90;;;2.10;99.90;;;;;;5013248;28;20498;-92
2022/04/11 03:10:21;;;;;;;7.78;2.50;;;2.80;99.90;;;;;;5014497;28;20048;-93
2022/04/11 03:12:46;;;;;;;6.00;2.55;;;2.10;99.90;;;;;;5012786;28;20177;-92
2022/04/11 03:15:12;;;;;;;5.05;2.88;;;2.40;99.90;;;;;;5013742;28;20049;-91
2022/04/11 03:17:38;;;;;;;5.82;2.70;;;2.20;99.90;;;;;;5013840;28;20061;-91
2022/04/11 03:20:05;;;;;;;9.35;2.80;;;2.40;99.90;;;;;;5014236;28;20045;-91
2022/04/11 03:22:30;;;;;;;7.10;3.08;;;1.90;99.90;;;;;;5030026;28;20061;-91
2022/04/11 03:24:56;;;;;;;7.72;2.85;;;1.90;99.90;;;;;;5030003;28;20060;-91
2022/04/11 03:27:22;;;;;;;7.15;2.85;;;1.90;99.90;;;;;;5029865;28;20049;-91
2022/04/11 03:29:47;;;;;;;6.53;2.60;;;2.70;99.90;;;;;;5012861;28;20079;-91
2022/04/11 03:32:13;;;;;;;6.57;3.10;;;2.00;99.90;;;;;;5010180;28;20061;-91
2022/04/11 03:34:38;;;;;;;5.40;2.60;;;1.90;99.90;;;;;;5010093;28;20049;-91
2022/04/11 03:37:04;;;;;;;4.82;2.58;;;1.90;99.90;;;;;;5010274;28;20606;-92
2022/04/11 03:39:30;;;;;;;6.07;3.20;;;1.90;99.90;;;;;;4978150;28;20107;-91
2022/04/11 03:41:56;;;;;;;6.03;2.75;;;1.90;99.90;;;;;;5012907;28;20057;-91
2022/04/11 03:44:22;;;;;;;8.23;2.88;;;1.90;99.90;;;;;;5013879;28;20147;-92
2022/04/11 03:46:47;;;;;;;7.35;2.97;;;1.80;99.90;;;;;;5028138;28;20049;-89
2022/04/11 03:49:13;;;;;;;9.05;2.88;;;1.90;99.90;;;;;;5034085;28;20055;-92
2022/04/11 03:51:39;;;;;;;7.53;3.08;;;2.50;99.90;;;;;;5013156;28;20557;-91
2022/04/11 03:54:04;;;;;;;8.35;2.97;;;1.80;99.90;;;;;;5030374;28;20056;-91
2022/04/11 03:56:30;;;;;;;6.85;2.90;;;1.70;99.90;;;;;;4997598;28;20046;-91
2022/04/11 03:58:56;;;;;;;8.85;3.30;;;1.80;99.90;;;;;;5031612;28;20542;-92
2022/04/11 04:01:22;;;;;;;6.38;2.80;;;2.20;99.90;;;;;;5033893;28;20041;-90
2022/04/11 04:03:47;;;;;;;7.55;3.05;;;2.40;99.90;;;;;;5017079;28;20069;-88
2022/04/11 04:06:13;;;;;;;5.65;2.90;;;2.00;99.90;;;;;;5033399;28;20045;-92
2022/04/11 04:08:39;;;;;;;7.90;3.20;;;1.80;99.90;;;;;;5016265;28;20540;-85
2022/04/11 04:11:04;;;;;;;9.00;3.25;;;2.50;99.90;;;;;;5014076;28;20050;-92
2022/04/11 04:13:30;;;;;;;8.88;3.25;;;2.20;99.90;;;;;;5012702;28;20052;-91
2022/04/11 04:15:56;;;;;;;11.15;3.50;;;2.00;99.90;;;;;;4998324;28;20060;-92
2022/04/11 04:18:22;;;;;;;6.80;3.00;;;2.50;99.90;;;;;;5016968;28;20103;-91
2022/04/11 04:20:47;;;;;;;7.55;3.42;;;2.00;99.90;;;;;;5032380;28;20053;-90
2022/04/11 04:23:13;;;;;;;9.20;3.47;;;3.10;99.90;;;;;;5033195;28;20050;-91
2022/04/11 04:25:39;;;;;;;7.28;3.47;;;3.00;99.90;;;;;;5016527;28;20093;-86
2022/04/11 04:28:05;;;;;;;6.97;3.20;;;2.20;99.90;;;;;;5031932;28;20053;-91
2022/04/11 04:30:30;;;;;;;8.25;3.30;;;2.20;99.90;;;;;;5016743;28;20041;-91
2022/04/11 04:32:59;;;;;;;6.85;3.33;;;2.20;99.90;;;;;;4996510;28;20070;-91
2022/04/11 04:35:26;;;;;;;7.90;3.75;;;2.30;99.90;;;;;;5012761;28;20498;-91
2022/04/11 04:37:52;;;;;;;12.98;3.85;;;3.00;99.90;;;;;;5016900;28;20343;-92
2022/04/11 04:40:19;;;;;;;6.80;3.78;;;2.30;99.90;;;;;;5032296;28;20067;-90
2022/04/11 04:42:44;;;;;;;;;;;2.30;99.90;;;;;;5031779;28;20046;-90
2022/04/11 04:45:10;;;;;;;7.85;3.45;;;2.40;99.90;;;;;;5032225;28;19932;-88
2022/04/11 04:47:36;;;;;;;10.23;3.63;;;2.30;99.90;;;;;;5016502;28;20092;-91
2022/04/11 04:50:02;;;;;;;8.20;3.70;;;2.40;99.90;;;;;;5032324;28;20041;-91
2022/04/11 04:52:28;;;;;;;10.02;4.03;;;2.40;99.90;;;;;;5031414;28;20088;-91
2022/04/11 04:54:53;;;;;;;7.10;4.03;;;2.50;99.90;;;;;;5015602;28;20091;-92
2022/04/11 04:57:19;;;;;;;8.20;4.40;;;3.20;99.90;;;;;;5047333;28;20069;-89
2022/04/11 04:59:45;;;;;;;9.25;4.43;;;2.50;99.90;;;;;;5021708;28;20049;-91
2022/04/11 05:02:11;;;;;;;10.52;4.90;;;2.50;99.90;;;;;;5016145;28;20080;-92
2022/04/11 05:04:36;;;;;;;9.45;5.00;;;3.10;99.90;;;;;;5032372;28;20136;-91
2022/04/11 05:07:02;;;;;;;9.75;4.82;;;2.60;99.90;;;;;;5031401;28;20060;-90
2022/04/11 05:09:28;;;;;;;10.93;5.00;;;2.60;99.90;;;;;;5015694;28;20191;-90
2022/04/11 05:11:54;;;;;;;11.32;4.93;;;2.70;99.90;;;;;;4998131;28;20111;-86
2022/04/11 05:14:19;;;;;;;12.82;4.80;;;2.70;99.90;;;;;;4979576;28;20058;-92
2022/04/11 05:16:45;;;;;;;8.80;4.38;;;2.80;99.90;;;;;;5012429;28;20161;-91
2022/04/11 05:19:11;;;;;;;14.20;5.22;;;3.30;99.90;;;;;;5012648;28;20498;-92
2022/04/11 05:21:36;;;;;;;10.45;4.60;;;2.90;99.90;;;;;;5007404;28;20057;-92
2022/04/11 05:24:02;;;;;;;14.45;5.85;;;2.90;99.90;;;;;;5015055;28;20045;-91
2022/04/11 05:26:28;;;;;;;9.60;4.50;;;3.00;99.90;;;;;;5015704;28;20057;-91
2022/04/11 05:28:54;;;;;;;12.85;4.97;;;3.60;99.90;;;;;;5013795;28;20047;-91
2022/04/11 05:31:19;;;;;;;9.27;5.00;;;3.00;99.90;;;;;;5018167;28;20099;-90
2022/04/11 05:33:45;;;;;;;11.07;5.50;;;3.30;99.90;;;;;;5034790;28;20049;-89
2022/04/11 05:36:11;;;;;;;;;;;3.10;99.90;;;;;;5018611;28;20044;-90
2022/04/11 05:38:37;;;;;;;10.32;5.50;;;3.70;99.90;;;;;;5035381;28;19921;-90
2022/04/11 05:41:03;;;;;;;9.40;5.05;;;3.90;99.90;;;;;;5030109;28;20072;-90
2022/04/11 05:43:29;;;;;;;11.50;5.45;;;3.20;99.90;;;;;;5017335;28;20121;-89
2022/04/11 05:45:55;;;;;;;10.52;5.13;;;3.30;99.90;;;;;;5050730;28;20060;-90
2022/04/11 05:48:20;;;;;;;12.98;5.57;;;3.30;99.90;;;;;;5035451;28;20049;-93
2022/04/11 05:50:46;;;;;;;12.38;5.03;;;3.30;99.90;;;;;;5033700;28;20045;-90
2022/04/11 05:53:12;;;;;;;9.20;4.90;;;4.10;99.90;;;;;;5034830;28;20060;-92
2022/04/11 05:55:38;;;;;;;10.00;5.53;;;3.60;99.90;;;;;;5033632;28;20053;-92
2022/04/11 05:58:04;;;;;;;11.82;5.95;;;3.40;99.90;;;;;;5033090;28;20049;-91
2022/04/11 06:00:30;;;;;;;11.45;5.72;;;3.50;99.90;;;;;;5018003;28;20041;-93
2022/04/11 06:02:56;;;;;;;9.32;5.38;;;3.50;99.90;;;;;;5000640;28;20143;-92
2022/04/11 06:05:22;;;;;;;10.05;5.20;;;3.50;99.90;;;;;;5033397;28;20043;-91
2022/04/11 06:07:48;;;;;;;11.70;5.57;;;3.60;99.90;;;;;;5016995;28;20195;-85
2022/04/11 06:10:13;;;;;;;9.85;5.35;;;3.60;99.90;;;;;;5018195;28;20056;-91
2022/04/11 06:12:39;;;;;;;10.82;5.20;;;3.60;99.90;;;;;;5033724;28;20114;-92
2022/04/11 06:15:06;;;;;;;12.15;5.82;;;3.90;99.90;;;;;;5032712;28;20036;-91
2022/04/11 06:17:32;;;;;;;11.27;5.78;;;3.70;99.90;;;;;;5000517;28;20056;-91
2022/04/11 06:19:59;;;;;;;10.05;5.45;;;3.70;99.90;;;;;;5030342;28;20045;-89
2022/04/11 06:22:25;;;;;;;8.15;5.45;;;3.80;99.90;;;;;;5015697;28;20059;-88
2022/04/11 06:24:58;;;;;;;;;;;3.80;99.90;;;;;;5032559;28;20037;-90
2022/04/11 06:27:23;;;;;;;9.88;4.90;;;3.90;99.90;;;;;;5015592;28;19928;-89
2022/04/11 06:29:56;;;;;;;10.73;4.97;;;3.80;99.90;;;;;;5016020;28;20054;-87
2022/04/11 06:32:32;;;;;;;9.52;5.00;;;3.90;99.90;;;;;;5017412;28;20107;-91
2022/04/11 06:34:58;;;;;;;9.73;5.07;;;4.00;99.90;;;;;;5052429;28;20061;-91
2022/04/11 06:37:24;;;;;;;;;;;4.00;99.90;;;;;;5033015;28;20072;-90
2022/04/11 06:39:51;;;;;;;12.23;4.97;;;4.10;99.90;;;;;;5032820;28;20317;-85
2022/04/11 06:42:17;;;;;;;12.50;5.10;;;4.20;99.90;;;;;;5032140;28;20052;-88
2022/04/11 06:44:42;;;;;;;12.10;4.65;;;4.20;99.90;;;;;;5016658;28;20053;-89
2022/04/11 06:47:08;;;;;;;10.20;5.22;;;4.30;99.90;;;;;;5016615;28;20060;-90
2022/04/11 06:49:35;;;;;;;10.48;4.68;;;4.40;99.90;;;;;;5015760;28;20076;-90
2022/04/11 06:52:01;;;;;;;10.65;4.82;;;4.50;99.90;;;;;;5032984;28;20041;-88
2022/04/11 06:54:27;;;;;;;11.25;5.60;;;4.60;99.90;;;;;;5017647;28;20041;-89
2022/04/11 06:56:53;;;;;;;12.43;5.78;;;4.60;99.90;;;;;;5032096;28;20494;-87
2022/04/11 06:59:18;;;;;;;8.70;4.93;;;4.70;99.90;;;;;;5033679;28;20056;-88
2022/04/11 07:01:44;;;;;;;14.38;5.07;;;4.90;99.90;;;;;;5033978;28;20478;-89
2022/04/11 07:04:10;;;;;;;9.90;5.30;;;4.80;99.90;;;;;;5016857;28;20128;-90
2022/04/11 07:06:36;;;;;;;10.98;5.93;;;4.90;99.90;;;;;;5000698;28;20474;-90
2022/04/11 07:09:01;;;;;;;11.95;5.75;;;4.90;99.90;;;;;;5003728;28;20053;-90
2022/04/11 07:11:27;;;;;;;10.90;5.18;;;5.00;99.90;;;;;;5023947;28;20059;-90
2022/04/11 07:13:53;;;;;;;12.20;5.68;;;5.00;99.90;;;;;;5031793;28;20067;-89
2022/04/11 07:16:18;;;;;;;12.25;5.45;;;5.10;99.90;;;;;;5036487;28;20056;-89
2022/04/11 07:18:44;;;;;;;11.05;5.20;;;5.30;99.90;;;;;;5037443;28;20486;-89
2022/04/11 07:21:10;;;;;;;11.25;5.43;;;5.20;99.90;;;;;;5036912;28;20049;-89
2022/04/11 07:23:36;;;;;;;10.55;5.60;;;5.20;99.90;;;;;;5020798;28;20131;-89
2022/04/11 07:26:01;;;;;;;9.32;5.20;;;5.30;99.90;;;;;;5036804;28;20049;-89
2022/04/11 07:28:27;;;;;;;11.85;5.35;;;5.30;99.90;;;;;;5035997;28;20040;-89
2022/04/11 07:30:53;;;;;;;12.95;6.05;;;5.40;99.90;;;;;;5019726;28;22065;-84
2022/04/11 07:33:18;;;;;;;10.77;5.18;;;5.50;99.90;;;;;;5019436;28;20049;-89
2022/04/11 07:35:44;;;;;;;13.27;5.80;;;5.60;99.90;;;;;;5036300;28;20049;-91
2022/04/11 07:38:10;;;;;;;13.15;6.35;;;5.80;99.90;;;;;;5035696;28;20071;-90
2022/04/11 07:40:35;;;;;;;9.18;5.40;;;5.70;99.90;;;;;;5035869;28;20084;-90
2022/04/11 07:43:01;;;;;;;9.05;5.25;;;6.00;99.90;;;;;;5033753;28;20107;-87
2022/04/11 07:45:28;;;;;;;10.10;5.90;;;5.80;99.90;;;;;;5037354;28;20048;-88
2022/04/11 07:47:53;;;;;;;9.65;5.10;;;5.90;99.90;;;;;;5054200;28;20150;-87
2022/04/11 07:50:19;;;;;;;11.77;5.63;;;6.00;99.90;;;;;;5037006;28;20045;-88
2022/04/11 07:52:45;;;;;;;11.25;5.80;;;6.10;99.90;;;;;;5018193;28;20148;-86
2022/04/11 07:55:12;;;;;;;11.40;5.28;;;6.20;99.90;;;;;;5003966;28;20402;-91
2022/04/11 07:57:38;;;;;;;9.48;4.90;;;6.50;99.90;;;;;;5011374;28;20049;-88
2022/04/11 08:00:06;;;;;;;;;;;6.40;99.90;;;;;;5037254;28;20049;-88
2022/04/11 08:02:33;;;;;;;11.25;4.93;;;6.40;99.90;;;;;;5036232;28;19928;-89
2022/04/11 08:05:05;;;;;;;10.40;5.50;;;6.50;99.90;;;;;;5037194;28;20574;-87
2022/04/11 08:07:32;;;;;;;10.68;5.45;;;6.60;99.90;;;;;;5020876;28;20128;-88
2022/04/11 08:09:59;;;;;;;10.18;5.22;;;6.70;99.90;;;;;;5036617;28;20053;-89
2022/04/11 08:12:25;;;;;;;11.50;5.60;;;6.80;99.90;;;;;;5051354;28;20041;-87
2022/04/11 08:14:51;;;;;;;11.85;5.85;;;6.90;99.90;;;;;;5031711;28;20042;-87
2022/04/11 08:17:16;;;;;;;13.50;5.70;;;7.00;99.90;;;;;;5050140;28;20542;-88
2022/04/11 08:19:42;;;;;;;14.52;6.05;;;7.10;99.90;;;;;;5036657;28;20549;-88
2022/04/11 08:22:08;;;;;;;12.75;5.85;;;7.10;99.90;;;;;;5036107;28;20080;-88
2022/04/11 08:24:34;;;;;;;12.23;5.72;;;7.30;99.90;;;;;;5019945;28;20179;-88
2022/04/11 08:26:59;;;;;;;13.10;5.40;;;7.40;99.90;;;;;;5018205;28;20045;-87
2022/04/11 08:29:26;;;;;;;10.23;5.60;;;7.60;99.90;;;;;;5004201;28;20037;-88
2022/04/11 08:31:51;;;;;;;;;;;7.70;99.90;;;;;;5037056;28;20056;-88
2022/04/11 08:34:17;;;;;;;10.30;5.88;;;7.80;99.90;;;;;;5050161;28;20455;-88
2022/04/11 08:36:44;;;;;;;10.57;5.35;;;7.90;99.90;;;;;;5031158;28;20040;-89
2022/04/11 08:39:10;;;;;;;14.93;5.50;;;8.00;99.90;;;;;;5036240;28;20044;-89
2022/04/11 08:41:36;;;;;;;11.43;5.72;;;8.10;99.90;;;;;;5013596;28;20143;-92
2022/04/11 08:44:06;;;;;;;12.27;5.60;;;8.20;99.90;;;;;;5035514;28;20052;-89
2022/04/11 08:46:34;;;;;;;8.15;4.70;;;8.40;99.90;;;;;;5017665;28;20048;-89
2022/04/11 08:49:06;;;;;;;12.77;5.40;;;8.50;99.90;;;;;;5019314;28;20047;-88
2022/04/11 08:51:35;;;;;;;12.88;5.63;;;8.60;99.90;;;;;;5019234;28;20087;-87
2022/04/11 08:54:03;;;;;;;10.30;5.18;;;8.70;99.90;;;;;;5019632;28;20037;-87
2022/04/11 08:56:29;;;;;;;10.35;5.43;;;8.80;99.90;;;;;;5036415;28;20049;-87
2022/04/11 08:58:55;;;;;;;8.70;5.50;;;8.80;99.90;;;;;;5035383;28;20076;-86
2022/04/11 09:01:21;;;;;;;10.27;5.10;;;8.90;99.90;;;;;;5036690;28;20122;-89
2022/04/11 09:03:48;;;;;;;10.65;5.53;;;9.00;99.90;;;;;;5015052;28;20095;-89
2022/04/11 09:06:17;;;;;;;;;;;9.10;99.90;;;;;;5034732;28;20044;-89
2022/04/11 09:08:58;;;;;;;9.50;5.10;;;9.10;99.90;;;;;;5017075;28;19921;-89
2022/04/11 09:11:35;;;;;;;13.57;5.28;;;9.10;99.90;;;;;;5033041;28;20080;-91
2022/04/11 09:14:08;;;;;;;8.65;5.10;;;9.20;99.90;;;;;;4999110;28;20057;-90
2022/04/11 09:16:49;;;;;;;10.07;5.45;;;9.20;99.90;;;;;;5028763;28;20548;-90
2022/04/11 09:19:27;;;;;;;9.38;4.75;;;9.20;99.90;;;;;;5031368;28;20044;-87
2022/04/11 09:21:56;;;;;;;9.65;5.25;;;9.10;99.90;;;;;;5019123;28;20079;-86
2022/04/11 09:24:26;;;;;;;10.82;5.40;;;9.20;99.90;;;;;;5006989;28;20041;-86
2022/04/11 09:26:55;;;;;;;10.57;4.85;;;9.20;99.90;;;;;;5016400;28;20136;-87
2022/04/11 09:29:22;;;;;;;10.63;4.60;;;9.20;99.90;;;;;;5050595;28;20616;-87
2022/04/11 09:31:48;;;;;;;10.73;5.60;;;9.20;99.90;;;;;;5035851;28;20049;-87
2022/04/11 09:34:21;;;;;;;16.38;5.60;;;9.20;99.90;;;;;;5003314;28;20056;-87
2022/04/11 09:36:51;;;;;;;14.43;6.20;;;9.30;99.90;;;;;;5035907;28;20045;-87
2022/04/11 09:39:27;;;;;;;13.27;5.85;;;9.30;99.90;;;;;;5028433;28;20060;-87
2022/04/11 09:41:53;;;;;;;16.70;6.78;;;9.40;99.90;;;;;;5035464;28;20162;-87
2022/04/11 09:44:23;;;;;;;10.10;5.63;;;9.40;99.90;;;;;;5035283;28;20068;-87
2022/04/11 09:46:54;;;;;;;13.25;5.63;;;9.50;99.90;;;;;;5035835;28;20052;-88
2022/04/11 09:49:20;;;;;;;11.98;4.80;;;9.50;99.90;;;;;;5019019;28;20048;-87
2022/04/11 09:52:02;;;;;;;15.77;5.20;;;9.60;99.90;;;;;;5035750;28;20049;-88
2022/04/11 09:54:29;;;;;;;12.00;5.63;;;9.60;99.90;;;;;;5035292;28;20052;-88
2022/04/11 09:57:00;;;;;;;9.85;5.22;;;9.80;99.90;;;;;;5018982;28;20053;-87
2022/04/11 09:59:26;;;;;;;10.77;5.45;;;9.80;99.90;;;;;;5002455;28;20084;-87
2022/04/11 10:01:53;;;;;;;14.80;6.15;;;9.90;99.90;;;;;;5019191;28;20098;-87
2022/04/11 10:04:20;;;;;;;13.48;5.60;;;10.00;99.90;;;;;;5018152;28;20126;-88
2022/04/11 10:06:47;;;;;;;10.63;5.18;;;10.00;99.90;;;;;;5035707;28;20088;-91
2022/04/11 10:09:14;;;;;;;11.30;5.18;;;10.10;99.90;;;;;;5034766;28;20087;-85
2022/04/11 10:11:41;;;;;;;11.75;5.00;;;10.20;99.90;;;;;;5034302;28;20079;-85
2022/04/11 10:14:10;;;;;;;12.40;5.13;;;10.30;99.90;;;;;;5033207;28;20551;-86
2022/04/11 10:16:42;;;;;;;10.25;5.20;;;10.30;99.90;;;;;;5018533;28;20091;-85
2022/04/11 10:19:12;;;;;;;10.75;5.05;;;10.40;99.90;;;;;;5034533;28;20111;-85
2022/04/11 10:21:43;;;;;;;11.50;5.30;;;10.40;99.90;;;;;;5018092;28;20135;-85
2022/04/11 10:24:41;;;;;;;11.63;5.10;;;10.50;99.90;;;;;;5017451;28;20478;-87
2022/04/11 10:27:25;;;;;;;10.55;5.10;;;10.50;99.90;;;;;;5017562;28;20052;-86
2022/04/11 10:29:55;;;;;;;10.38;5.32;;;10.60;99.90;;;;;;5034422;28;20053;-86
2022/04/11 10:32:27;;;;;;;11.15;4.85;;;10.80;99.90;;;;;;5033339;28;20132;-88
2022/04/11 10:34:57;;;;;;;9.32;4.90;;;10.90;99.90;;;;;;5035210;28;20045;-87
2022/04/11 10:37:26;;;;;;;11.55;5.45;;;11.00;99.90;;;;;;5018587;28;20102;-85
2022/04/11 10:39:53;;;;;;;8.65;4.55;;;11.10;99.90;;;;;;5035209;28;20044;-87
2022/04/11 10:42:25;;;;;;;13.57;5.13;;;11.20;99.90;;;;;;5018168;28;20052;-87
2022/04/11 10:44:56;;;;;;;9.95;4.82;;;11.30;99.90;;;;;;5018827;28;20056;-87
2022/04/11 10:47:29;;;;;;;11.65;5.60;;;11.40;99.90;;;;;;5018046;28;20390;-85
2022/04/11 10:49:55;;;;;;;14.15;5.30;;;11.50;99.90;;;;;;5034198;28;20045;-88
2022/04/11 10:52:31;;;;;;;11.48;5.10;;;11.60;99.90;;;;;;5017051;28;20135;-88
2022/04/11 10:55:03;;;;;;;10.13;4.97;;;11.60;99.90;;;;;;5034550;28;20049;-89
2022/04/11 10:57:34;;;;;;;12.27;5.38;;;11.60;99.90;;;;;;5033984;28;20045;-87
2022/04/11 11:00:10;;;;;;;9.27;5.00;;;11.70;99.90;;;;;;5018192;28;20367;-89
2022/04/11 11:03:10;;;;;;;10.02;5.63;;;11.70;99.90;;;;;;5014053;28;20221;-88
2022/04/11 11:05:48;;;;;;;11.15;5.38;;;11.70;99.90;;;;;;5033065;28;20064;-89
2022/04/11 11:08:13;;;;;;;16.25;5.70;;;11.80;99.90;;;;;;5029456;28;20049;-90
2022/04/11 11:10:40;;;;;;;11.57;6.13;;;12.00;99.90;;;;;;5018811;28;20198;-90
2022/04/11 11:13:34;;;;;;;11.50;5.68;;;12.20;99.90;;;;;;5033702;28;20367;-89
2022/04/11 11:16:07;;;;;;;11.70;6.10;;;12.30;99.90;;;;;;5033954;28;20123;-89
2022/04/11 11:18:54;;;;;;;11.15;5.95;;;12.40;99.90;;;;;;5034270;28;20072;-89
2022/04/11 11:21:44;;;;;;;13.63;6.57;;;12.50;99.90;;;;;;5034028;28;20045;-88
2022/04/11 11:24:10;;;;;;;11.30;6.07;;;12.60;99.90;;;;;;5034121;28;20084;-89
2022/04/11 11:26:39;;;;;;;10.98;6.05;;;12.70;99.90;;;;;;5034271;28;20049;-89
2022/04/11 11:29:15;;;;;;;10.13;6.05;;;12.80;99.90;;;;;;5033547;28;20094;-89
2022/04/11 11:31:41;;;;;;;13.10;6.88;;;13.00;99.90;;;;;;5033655;28;20154;-88
2022/04/11 11:34:17;;;;;;;13.18;6.15;;;13.10;99.90;;;;;;5022220;28;20071;-86
2022/04/11 11:36:43;;;;;;;12.18;6.13;;;13.30;99.90;;;;;;5032255;28;20041;-86
2022/04/11 11:39:12;;;;;;;14.35;6.95;;;13.30;99.90;;;;;;5000127;28;20132;-85
2022/04/11 11:41:42;;;;;;;12.82;7.20;;;13.40;99.90;;;;;;5016191;28;20056;-85
2022/04/11 11:44:09;;;;;;;12.13;6.70;;;13.60;99.90;;;;;;5015932;28;20045;-86
2022/04/11 11:46:53;;;;;;;10.70;6.47;;;13.70;98.50;;;;;;5032966;28;20060;-86
2022/04/11 11:49:20;;;;;;;13.57;7.10;;;13.90;94.60;;;;;;5033149;28;20127;-87
2022/04/11 11:51:47;;;;;;;11.50;6.22;;;13.90;91.70;;;;;;5017051;28;20052;-87
2022/04/11 11:54:14;;;;;;;11.45;6.35;;;13.90;91.10;;;;;;5015778;28;20086;-86
2022/04/11 11:56:44;;;;;;;12.68;6.55;;;13.90;91.60;;;;;;5014382;28;20121;-87
2022/04/11 11:59:11;;;;;;;12.10;6.97;;;14.00;86.50;;;;;;5030217;28;20033;-86
2022/04/11 12:01:38;;;;;;;14.23;6.65;;;14.30;91.60;;;;;;5034248;28;20045;-89
2022/04/11 12:04:20;;;;;;;10.45;6.50;;;14.50;90.40;;;;;;5019251;28;20098;-85
2022/04/11 12:06:53;;;;;;;14.68;7.72;;;14.60;89.10;;;;;;5020789;28;20048;-86
2022/04/11 12:09:20;;;;;;;13.68;7.22;;;14.80;88.30;;;;;;5020372;28;20102;-87
2022/04/11 12:11:46;;;;;;;13.82;6.68;;;15.00;92.60;;;;;;5020073;28;20059;-86
2022/04/11 12:14:12;;;;;;;11.95;6.65;;;15.30;93.20;;;;;;5036017;28;20175;-87
2022/04/11 12:16:54;;;;;;;11.95;6.68;;;15.50;92.30;;;;;;5035811;28;20506;-87
2022/04/11 12:19:30;;;;;;;11.10;6.78;;;15.80;94.50;;;;;;5035886;28;20040;-90
2022/04/11 12:22:07;;;;;;;;;;;16.00;93.30;;;;;;5036753;28;20072;-86
2022/04/11 12:24:33;;;;;;;10.18;6.20;;;16.20;78.20;;;;;;5035432;28;19921;-87
2022/04/11 12:26:59;;;;;;;;;;;16.50;97.90;;;;;;5035608;28;20407;-86
2022/04/11 12:29:26;;;;;;;12.57;6.68;;;16.60;85.90;;;;;;5051884;28;19924;-87
2022/04/11 12:31:57;;;;;;;13.52;6.72;;;16.80;99.90;;;;;;5035971;28;20124;-86
2022/04/11 12:34:33;;;;;;;11.93;7.03;;;17.10;93.20;;;;;;5034639;28;20465;-86
2022/04/11 12:37:02;;;;;;;12.10;6.07;;;17.30;87.60;;;;;;5034962;28;20406;-86
2022/04/11 12:39:29;;;;;;;10.70;6.00;;;17.50;91.60;;;;;;5035191;28;20529;-86
2022/04/11 12:41:55;;;;;;;9.23;5.85;;;17.60;87.60;;;;;;5018850;28;20049;-86
2022/04/11 12:44:41;;;;;;;11.57;6.32;;;17.70;80.30;;;;;;5034837;28;20379;-87
2022/04/11 12:47:07;;;;;;;11.77;6.22;;;17.80;76.80;;;;;;5035138;28;20557;-86
2022/04/11 12:49:50;;;;;;;11.77;6.20;;;17.90;78.50;;;;;;5035164;28;20053;-86
2022/04/11 12:52:37;;;;;;;10.13;6.57;;;18.00;73.20;;;;;;5035074;28;20059;-86
2022/04/11 12:55:04;;;;;;;;;;;18.10;73.30;;;;;;5035423;28;20045;-87
2022/04/11 12:57:32;;;;;;;10.43;6.13;;;18.20;73.90;;;;;;5017444;28;20373;-86